Uithoorn, Netherlands
Current Conditions -  °F | °C
As of 8:25 AM on Saturday 20 Dec 2014 (Local Time) from EHAM Reporting Station
Few Clouds Few Clouds  
Wind Chill: 38°   Ceiling: Unl
Heat Index: 46°   Visibility: 6mi
Dew Point: 39°   Wind: 28mph
Humidity: 76%   Direction: 260°W
Pressure: 30.03"   Gusts: NA
Location:  52.24°N, 4.83°E
Report Text: EHAM 200725Z 26024KT 9999 FEW028 08/04 Q1017 NOSIG
Loading
Personal Weather Stations






























Interactive Weather Map New forecast layout! Learn more

10-Day Weather Forecast

Advertisements
Track Severe Weather on mobile